sensor_id;sensor_type;location;lat;lon;timestamp;temperature;humidity
7796;DHT22;3942;51.518;6.912;2023-04-16T00:00:31;9.80;99.90
7796;DHT22;3942;51.518;6.912;2023-04-16T00:05:33;10.20;99.90
7796;DHT22;3942;51.518;6.912;2023-04-16T00:10:36;9.90;99.90
7796;DHT22;3942;51.518;6.912;2023-04-16T00:15:38;9.90;99.90
7796;DHT22;3942;51.518;6.912;2023-04-16T00:20:40;10.20;99.90
7796;DHT22;3942;51.518;6.912;2023-04-16T00:25:43;9.90;99.90
7796;DHT22;3942;51.518;6.912;2023-04-16T00:30:45;10.10;99.90
7796;DHT22;3942;51.518;6.912;2023-04-16T00:35:47;10.20;99.90
7796;DHT22;3942;51.518;6.912;2023-04-16T00:40:50;10.00;99.90
7796;DHT22;3942;51.518;6.912;2023-04-16T00:50:55;10.20;99.90
7796;DHT22;3942;51.518;6.912;2023-04-16T01:01:01;10.10;99.90
7796;DHT22;3942;51.518;6.912;2023-04-16T01:16:10;10.10;99.90
7796;DHT22;3942;51.518;6.912;2023-04-16T01:21:13;10.00;99.90
7796;DHT22;3942;51.518;6.912;2023-04-16T01:26:15;10.00;99.90
7796;DHT22;3942;51.518;6.912;2023-04-16T01:31:17;9.90;99.90
7796;DHT22;3942;51.518;6.912;2023-04-16T02:06:38;10.10;99.90
7796;DHT22;3942;51.518;6.912;2023-04-16T02:11:40;10.20;99.90
7796;DHT22;3942;51.518;6.912;2023-04-16T02:16:42;10.00;99.90
7796;DHT22;3942;51.518;6.912;2023-04-16T02:21:45;10.20;99.90
7796;DHT22;3942;51.518;6.912;2023-04-16T02:36:52;10.10;99.90
7796;DHT22;3942;51.518;6.912;2023-04-16T02:41:54;10.30;99.90
7796;DHT22;3942;51.518;6.912;2023-04-16T02:46:57;10.30;99.90
7796;DHT22;3942;51.518;6.912;2023-04-16T02:52:00;10.10;99.90
7796;DHT22;3942;51.518;6.912;2023-04-16T03:02:05;10.20;99.90
7796;DHT22;3942;51.518;6.912;2023-04-16T03:07:08;10.10;99.90
7796;DHT22;3942;51.518;6.912;2023-04-16T03:22:17;10.20;99.90
7796;DHT22;3942;51.518;6.912;2023-04-16T03:27:19;10.30;99.90
7796;DHT22;3942;51.518;6.912;2023-04-16T03:47:28;10.20;99.90
7796;DHT22;3942;51.518;6.912;2023-04-16T03:52:32;10.20;99.90
7796;DHT22;3942;51.518;6.912;2023-04-16T03:57:34;10.50;99.90
7796;DHT22;3942;51.518;6.912;2023-04-16T04:02:35;9.90;99.90
7796;DHT22;3942;51.518;6.912;2023-04-16T04:37:54;10.30;99.90
7796;DHT22;3942;51.518;6.912;2023-04-16T04:42:56;10.30;99.90
7796;DHT22;3942;51.518;6.912;2023-04-16T04:58:09;10.50;99.90
7796;DHT22;3942;51.518;6.912;2023-04-16T05:13:16;10.40;99.90
7796;DHT22;3942;51.518;6.912;2023-04-16T05:18:18;10.00;99.90
7796;DHT22;3942;51.518;6.912;2023-04-16T05:48:33;10.20;99.90
7796;DHT22;3942;51.518;6.912;2023-04-16T05:53:36;10.30;99.90
7796;DHT22;3942;51.518;6.912;2023-04-16T06:49:04;10.30;99.90
7796;DHT22;3942;51.518;6.912;2023-04-16T06:54:07;10.40;99.90
7796;DHT22;3942;51.518;6.912;2023-04-16T07:39:32;10.90;99.90
7796;DHT22;3942;51.518;6.912;2023-04-16T07:54:40;10.80;99.90
7796;DHT22;3942;51.518;6.912;2023-04-16T07:59:42;11.00;99.90
7796;DHT22;3942;51.518;6.912;2023-04-16T08:24:56;11.90;99.90
7796;DHT22;3942;51.518;6.912;2023-04-16T08:29:58;12.10;99.90
7796;DHT22;3942;51.518;6.912;2023-04-16T08:50:10;11.60;99.90
7796;DHT22;3942;51.518;6.912;2023-04-16T08:55:18;11.80;99.90
7796;DHT22;3942;51.518;6.912;2023-04-16T09:30:37;12.00;1.00
7796;DHT22;3942;51.518;6.912;2023-04-16T09:40:48;12.40;1.00
7796;DHT22;3942;51.518;6.912;2023-04-16T09:46:06;12.10;99.90
7796;DHT22;3942;51.518;6.912;2023-04-16T09:51:11;12.40;99.90
7796;DHT22;3942;51.518;6.912;2023-04-16T10:16:26;12.30;1.00
7796;DHT22;3942;51.518;6.912;2023-04-16T10:26:35;12.90;99.90
7796;DHT22;3942;51.518;6.912;2023-04-16T10:31:37;12.90;1.00
7796;DHT22;3942;51.518;6.912;2023-04-16T10:36:40;13.40;99.90
7796;DHT22;3942;51.518;6.912;2023-04-16T10:46:46;13.00;99.90
7796;DHT22;3942;51.518;6.912;2023-04-16T11:07:13;12.80;99.90
7796;DHT22;3942;51.518;6.912;2023-04-16T11:32:31;13.80;99.90
7796;DHT22;3942;51.518;6.912;2023-04-16T11:37:35;13.70;1.00
7796;DHT22;3942;51.518;6.912;2023-04-16T11:42:40;14.10;99.90
7796;DHT22;3942;51.518;6.912;2023-04-16T11:47:43;13.90;1.00
7796;DHT22;3942;51.518;6.912;2023-04-16T11:52:46;13.80;1.00
7796;DHT22;3942;51.518;6.912;2023-04-16T11:57:49;13.80;3.20
7796;DHT22;3942;51.518;6.912;2023-04-16T12:02:52;13.90;99.90
7796;DHT22;3942;51.518;6.912;2023-04-16T12:07:54;13.70;1.00
7796;DHT22;3942;51.518;6.912;2023-04-16T12:13:10;13.90;1.00
7796;DHT22;3942;51.518;6.912;2023-04-16T12:18:13;13.80;1.00
7796;DHT22;3942;51.518;6.912;2023-04-16T12:23:22;13.80;1.00
7796;DHT22;3942;51.518;6.912;2023-04-16T12:28:30;13.50;8.30
7796;DHT22;3942;51.518;6.912;2023-04-16T12:43:38;13.80;1.00
7796;DHT22;3942;51.518;6.912;2023-04-16T12:58:46;13.50;25.30
7796;DHT22;3942;51.518;6.912;2023-04-16T13:39:08;14.00;1.00
7796;DHT22;3942;51.518;6.912;2023-04-16T13:44:12;13.90;1.00
7796;DHT22;3942;51.518;6.912;2023-04-16T13:49:14;13.80;1.00
7796;DHT22;3942;51.518;6.912;2023-04-16T13:54:16;14.10;1.00
7796;DHT22;3942;51.518;6.912;2023-04-16T13:59:19;13.90;99.90
7796;DHT22;3942;51.518;6.912;2023-04-16T14:04:21;13.90;99.90
7796;DHT22;3942;51.518;6.912;2023-04-16T14:09:22;13.70;99.90
7796;DHT22;3942;51.518;6.912;2023-04-16T14:14:26;13.90;99.90
7796;DHT22;3942;51.518;6.912;2023-04-16T14:34:36;14.10;99.90
7796;DHT22;3942;51.518;6.912;2023-04-16T14:44:42;14.20;99.90
7796;DHT22;3942;51.518;6.912;2023-04-16T14:49:44;14.10;99.90
7796;DHT22;3942;51.518;6.912;2023-04-16T14:54:46;14.10;99.90
7796;DHT22;3942;51.518;6.912;2023-04-16T14:59:49;14.20;99.90
7796;DHT22;3942;51.518;6.912;2023-04-16T15:04:51;14.10;99.90
7796;DHT22;3942;51.518;6.912;2023-04-16T15:14:56;14.10;17.90
7796;DHT22;3942;51.518;6.912;2023-04-16T15:19:59;14.10;1.00
7796;DHT22;3942;51.518;6.912;2023-04-16T15:30:06;14.20;1.00
7796;DHT22;3942;51.518;6.912;2023-04-16T15:35:08;14.40;1.00
7796;DHT22;3942;51.518;6.912;2023-04-16T15:40:10;14.40;1.00
7796;DHT22;3942;51.518;6.912;2023-04-16T15:45:13;14.30;1.00
7796;DHT22;3942;51.518;6.912;2023-04-16T16:00:21;14.10;1.00
7796;DHT22;3942;51.518;6.912;2023-04-16T16:05:23;14.10;1.00
7796;DHT22;3942;51.518;6.912;2023-04-16T16:15:29;14.00;1.00
7796;DHT22;3942;51.518;6.912;2023-04-16T16:20:31;14.00;1.00
7796;DHT22;3942;51.518;6.912;2023-04-16T16:30:37;14.00;1.00
7796;DHT22;3942;51.518;6.912;2023-04-16T16:35:40;14.00;1.00
7796;DHT22;3942;51.518;6.912;2023-04-16T16:45:45;13.60;99.90
7796;DHT22;3942;51.518;6.912;2023-04-16T17:00:53;13.30;1.00
7796;DHT22;3942;51.518;6.912;2023-04-16T17:05:55;13.30;1.00
7796;DHT22;3942;51.518;6.912;2023-04-16T17:10:57;13.20;99.90
7796;DHT22;3942;51.518;6.912;2023-04-16T17:16:00;13.10;1.00
7796;DHT22;3942;51.518;6.912;2023-04-16T17:21:02;13.10;99.90
7796;DHT22;3942;51.518;6.912;2023-04-16T17:26:04;13.20;99.90
7796;DHT22;3942;51.518;6.912;2023-04-16T17:31:07;13.10;52.00
7796;DHT22;3942;51.518;6.912;2023-04-16T17:46:16;13.00;1.00
7796;DHT22;3942;51.518;6.912;2023-04-16T17:51:18;13.00;1.00
7796;DHT22;3942;51.518;6.912;2023-04-16T17:56:20;13.20;1.00
7796;DHT22;3942;51.518;6.912;2023-04-16T18:01:24;13.10;1.00
7796;DHT22;3942;51.518;6.912;2023-04-16T18:06:26;13.00;99.90
7796;DHT22;3942;51.518;6.912;2023-04-16T18:11:28;13.10;99.90
7796;DHT22;3942;51.518;6.912;2023-04-16T18:16:32;13.10;99.90
7796;DHT22;3942;51.518;6.912;2023-04-16T18:26:36;13.10;99.90
7796;DHT22;3942;51.518;6.912;2023-04-16T18:31:39;13.00;1.00
7796;DHT22;3942;51.518;6.912;2023-04-16T18:36:41;13.00;1.00
7796;DHT22;3942;51.518;6.912;2023-04-16T18:41:43;12.90;1.00
7796;DHT22;3942;51.518;6.912;2023-04-16T18:46:48;12.80;16.00
7796;DHT22;3942;51.518;6.912;2023-04-16T18:51:50;12.90;1.00
7796;DHT22;3942;51.518;6.912;2023-04-16T18:56:55;12.80;95.10
7796;DHT22;3942;51.518;6.912;2023-04-16T19:01:59;12.70;87.20
7796;DHT22;3942;51.518;6.912;2023-04-16T19:07:01;12.80;90.90
7796;DHT22;3942;51.518;6.912;2023-04-16T19:17:07;12.60;99.90
7796;DHT22;3942;51.518;6.912;2023-04-16T19:22:09;12.60;99.90
7796;DHT22;3942;51.518;6.912;2023-04-16T19:27:11;12.50;97.10
7796;DHT22;3942;51.518;6.912;2023-04-16T19:32:14;12.40;22.80
7796;DHT22;3942;51.518;6.912;2023-04-16T19:47:21;12.30;1.00
7796;DHT22;3942;51.518;6.912;2023-04-16T19:52:23;12.30;1.00
7796;DHT22;3942;51.518;6.912;2023-04-16T19:57:25;12.20;1.00
7796;DHT22;3942;51.518;6.912;2023-04-16T20:02:28;12.20;1.00
7796;DHT22;3942;51.518;6.912;2023-04-16T20:07:33;12.20;1.00
7796;DHT22;3942;51.518;6.912;2023-04-16T20:12:35;12.00;1.00
7796;DHT22;3942;51.518;6.912;2023-04-16T20:17:38;12.00;99.90
7796;DHT22;3942;51.518;6.912;2023-04-16T20:22:40;11.90;99.90
7796;DHT22;3942;51.518;6.912;2023-04-16T20:32:46;11.80;99.90
7796;DHT22;3942;51.518;6.912;2023-04-16T20:37:47;11.60;99.90
7796;DHT22;3942;51.518;6.912;2023-04-16T20:42:49;11.70;99.90
7796;DHT22;3942;51.518;6.912;2023-04-16T20:47:52;11.60;99.90
7796;DHT22;3942;51.518;6.912;2023-04-16T21:03:00;11.50;99.90
7796;DHT22;3942;51.518;6.912;2023-04-16T21:08:02;11.60;99.90
7796;DHT22;3942;51.518;6.912;2023-04-16T21:13:04;11.50;99.90
7796;DHT22;3942;51.518;6.912;2023-04-16T21:18:08;11.40;99.90
7796;DHT22;3942;51.518;6.912;2023-04-16T21:23:10;11.40;99.90
7796;DHT22;3942;51.518;6.912;2023-04-16T21:33:15;11.40;99.90
7796;DHT22;3942;51.518;6.912;2023-04-16T21:43:19;11.30;99.90
7796;DHT22;3942;51.518;6.912;2023-04-16T21:48:23;11.40;99.90
7796;DHT22;3942;51.518;6.912;2023-04-16T21:53:25;11.20;99.90
7796;DHT22;3942;51.518;6.912;2023-04-16T21:58:27;11.30;99.90
7796;DHT22;3942;51.518;6.912;2023-04-16T22:03:30;11.50;99.90
7796;DHT22;3942;51.518;6.912;2023-04-16T22:08:32;11.40;99.90
7796;DHT22;3942;51.518;6.912;2023-04-16T22:13:34;11.20;99.90
7796;DHT22;3942;51.518;6.912;2023-04-16T22:18:38;11.30;99.90
7796;DHT22;3942;51.518;6.912;2023-04-16T22:23:40;11.20;99.90
7796;DHT22;3942;51.518;6.912;2023-04-16T22:33:45;11.20;99.90
7796;DHT22;3942;51.518;6.912;2023-04-16T22:38:47;11.30;99.90
7796;DHT22;3942;51.518;6.912;2023-04-16T22:48:52;11.20;99.90
7796;DHT22;3942;51.518;6.912;2023-04-16T22:53:54;11.20;99.90
7796;DHT22;3942;51.518;6.912;2023-04-16T22:58:56;11.20;99.90
7796;DHT22;3942;51.518;6.912;2023-04-16T23:04:00;11.20;99.90
7796;DHT22;3942;51.518;6.912;2023-04-16T23:14:04;11.20;99.90
7796;DHT22;3942;51.518;6.912;2023-04-16T23:19:09;11.20;99.90
7796;DHT22;3942;51.518;6.912;2023-04-16T23:29:16;11.30;99.90
7796;DHT22;3942;51.518;6.912;2023-04-16T23:34:19;11.00;99.90
7796;DHT22;3942;51.518;6.912;2023-04-16T23:49:27;11.00;99.90
7796;DHT22;3942;51.518;6.912;2023-04-16T23:54:28;11.00;99.90
7796;DHT22;3942;51.518;6.912;2023-04-16T23:59:30;10.90;99.90
